RYR7TN ESSA-EDDH
Flight info
| Callsign | RYR7TN |
|---|---|
| Flight time | 1h 9m |
| Altitude | 38000 |
| Route | NOSLI N850 ABAMA DCT GIMRU T503 MICOS N850 BOGMU BOGMU3P |
| Aircraft | B38M/M-SDE1FGHILORVWXY/HB1 |
Departure
| Time | 2026-04-23 16:35 |
|---|---|
| Airport | Stockholm-Arlanda Airport (ESSA) |
Arrival
| Time | 2026-04-23 17:45 |
|---|---|
| Airport | Hamburg Helmut Schmidt Airport (EDDH) |
| Time | Latitude | Longitude | Altitude | Speed | Heading |
|---|---|---|---|---|---|
| 2026-04-23 16:04 | 59.65433 | 17.93507 | 140 ft | 0 kts | 74° |
| 2026-04-23 16:28 | 59.65433 | 17.93506 | 140 ft | 1 kts | 74° |
| 2026-04-23 16:28 | 59.65427 | 17.93462 | 167 ft | 4 kts | 74° |
| 2026-04-23 16:28 | 59.65421 | 17.93421 | 140 ft | 4 kts | 68° |
| 2026-04-23 16:29 | 59.65407 | 17.93379 | 140 ft | 4 kts | 33° |
| 2026-04-23 16:29 | 59.65386 | 17.93371 | 140 ft | 3 kts | 346° |
| 2026-04-23 16:29 | 59.65361 | 17.93386 | 140 ft | 4 kts | 343° |
| 2026-04-23 16:29 | 59.65353 | 17.93391 | 140 ft | 1 kts | 345° |
| 2026-04-23 16:32 | 59.65355 | 17.93389 | 140 ft | 2 kts | 345° |
| 2026-04-23 16:32 | 59.65403 | 17.93364 | 140 ft | 12 kts | 346° |
| 2026-04-23 16:32 | 59.65498 | 17.93342 | 140 ft | 15 kts | 360° |
| 2026-04-23 16:32 | 59.65595 | 17.93301 | 140 ft | 14 kts | 347° |
| 2026-04-23 16:33 | 59.65676 | 17.93398 | 140 ft | 15 kts | 45° |
| 2026-04-23 16:33 | 59.65724 | 17.93496 | 140 ft | 0 kts | 47° |
| 2026-04-23 16:34 | 59.65731 | 17.93510 | 140 ft | 3 kts | 46° |
| 2026-04-23 16:34 | 59.65766 | 17.93582 | 140 ft | 13 kts | 45° |
| 2026-04-23 16:34 | 59.65851 | 17.93706 | 140 ft | 17 kts | 54° |
| 2026-04-23 16:34 | 59.65883 | 17.93936 | 141 ft | 18 kts | 76° |
| 2026-04-23 16:35 | 59.65920 | 17.94231 | 142 ft | 43 kts | 76° |
| 2026-04-23 16:35 | 59.66067 | 17.95389 | 138 ft | 127 kts | 76° |
| 2026-04-23 16:35 | 59.66328 | 17.97481 | 313 ft | 172 kts | 74° |
| 2026-04-23 16:35 | 59.66593 | 17.99897 | 1004 ft | 190 kts | 74° |
| 2026-04-23 16:36 | 59.66902 | 18.02508 | 1958 ft | 199 kts | 72° |
| 2026-04-23 16:36 | 59.67241 | 18.05349 | 2529 ft | 231 kts | 72° |
| 2026-04-23 16:36 | 59.67635 | 18.08673 | 3065 ft | 257 kts | 73° |
| 2026-04-23 16:36 | 59.67960 | 18.11944 | 4228 ft | 228 kts | 75° |
| 2026-04-23 16:37 | 59.68247 | 18.15153 | 4861 ft | 247 kts | 66° |
| 2026-04-23 16:37 | 59.69207 | 18.17861 | 4754 ft | 241 kts | 28° |
| 2026-04-23 16:37 | 59.70791 | 18.18740 | 4961 ft | 244 kts | 351° |
| 2026-04-23 16:37 | 59.72243 | 18.17280 | 6092 ft | 236 kts | 314° |
| 2026-04-23 16:38 | 59.73086 | 18.14406 | 7050 ft | 249 kts | 296° |
| 2026-04-23 16:38 | 59.73526 | 18.11007 | 7961 ft | 263 kts | 279° |
| 2026-04-23 16:38 | 59.73304 | 18.07328 | 8940 ft | 279 kts | 259° |
| 2026-04-23 16:38 | 59.72331 | 18.03850 | 9854 ft | 300 kts | 233° |
| 2026-04-23 16:39 | 59.70610 | 18.01312 | 10554 ft | 321 kts | 213° |
| 2026-04-23 16:39 | 59.68650 | 17.99001 | 11170 ft | 334 kts | 217° |
| 2026-04-23 16:39 | 59.66648 | 17.96519 | 11856 ft | 345 kts | 217° |
| 2026-04-23 16:39 | 59.64595 | 17.94000 | 12741 ft | 349 kts | 216° |
| 2026-04-23 16:40 | 59.62512 | 17.91464 | 13589 ft | 355 kts | 216° |
| 2026-04-23 16:40 | 59.60388 | 17.88888 | 14352 ft | 361 kts | 216° |
| 2026-04-23 16:40 | 59.58223 | 17.86269 | 15104 ft | 367 kts | 216° |
| 2026-04-23 16:40 | 59.56032 | 17.83623 | 15818 ft | 373 kts | 217° |
| 2026-04-23 16:41 | 59.53794 | 17.80923 | 16557 ft | 380 kts | 216° |
| 2026-04-23 16:41 | 59.51528 | 17.78195 | 17269 ft | 385 kts | 216° |
| 2026-04-23 16:41 | 59.49232 | 17.75416 | 17982 ft | 390 kts | 219° |
| 2026-04-23 16:41 | 59.47093 | 17.72119 | 18612 ft | 391 kts | 225° |
| 2026-04-23 16:42 | 59.44965 | 17.68744 | 19238 ft | 396 kts | 224° |
| 2026-04-23 16:42 | 59.42785 | 17.65356 | 19892 ft | 400 kts | 223° |
| 2026-04-23 16:42 | 59.40581 | 17.61969 | 20528 ft | 404 kts | 223° |
| 2026-04-23 16:42 | 59.38355 | 17.58577 | 21150 ft | 407 kts | 223° |
| 2026-04-23 16:43 | 59.36111 | 17.55166 | 21759 ft | 411 kts | 223° |
| 2026-04-23 16:43 | 59.33840 | 17.51724 | 22380 ft | 414 kts | 222° |
| 2026-04-23 16:43 | 59.31551 | 17.48259 | 22976 ft | 418 kts | 222° |
| 2026-04-23 16:43 | 59.29240 | 17.44770 | 23549 ft | 421 kts | 222° |
| 2026-04-23 16:44 | 59.26909 | 17.41252 | 24019 ft | 425 kts | 222° |
| 2026-04-23 16:44 | 59.24588 | 17.37759 | 24490 ft | 428 kts | 222° |
| 2026-04-23 16:44 | 59.22189 | 17.34153 | 25020 ft | 430 kts | 223° |
| 2026-04-23 16:44 | 59.19807 | 17.30582 | 25501 ft | 433 kts | 223° |
| 2026-04-23 16:45 | 59.17409 | 17.26992 | 25992 ft | 436 kts | 223° |
| 2026-04-23 16:45 | 59.15001 | 17.23393 | 26460 ft | 438 kts | 223° |
| 2026-04-23 16:45 | 59.12571 | 17.19769 | 26933 ft | 441 kts | 223° |
| 2026-04-23 16:45 | 59.10132 | 17.16138 | 27393 ft | 443 kts | 223° |
| 2026-04-23 16:46 | 59.07673 | 17.12484 | 27837 ft | 446 kts | 223° |
| 2026-04-23 16:46 | 59.05206 | 17.08825 | 28285 ft | 448 kts | 223° |
| 2026-04-23 16:46 | 59.02720 | 17.05137 | 28706 ft | 451 kts | 224° |
| 2026-04-23 16:46 | 59.00214 | 17.01438 | 29114 ft | 454 kts | 224° |
| 2026-04-23 16:47 | 58.97690 | 16.97717 | 29530 ft | 456 kts | 224° |
| 2026-04-23 16:47 | 58.95154 | 16.93984 | 29944 ft | 459 kts | 224° |
| 2026-04-23 16:47 | 58.92610 | 16.90246 | 30306 ft | 461 kts | 224° |
| 2026-04-23 16:47 | 58.90076 | 16.86530 | 30662 ft | 464 kts | 224° |
| 2026-04-23 16:48 | 58.87463 | 16.82705 | 30989 ft | 466 kts | 224° |
| 2026-04-23 16:48 | 58.84911 | 16.78977 | 31340 ft | 468 kts | 224° |
| 2026-04-23 16:48 | 58.82309 | 16.75182 | 31667 ft | 470 kts | 224° |
| 2026-04-23 16:48 | 58.79687 | 16.71367 | 31979 ft | 472 kts | 225° |
| 2026-04-23 16:49 | 58.77920 | 16.68798 | 32197 ft | 474 kts | 225° |
| 2026-04-23 16:49 | 58.74415 | 16.63715 | 32622 ft | 477 kts | 225° |
| 2026-04-23 16:49 | 58.71765 | 16.59882 | 32947 ft | 479 kts | 225° |
| 2026-04-23 16:49 | 58.69095 | 16.56026 | 33266 ft | 481 kts | 225° |
| 2026-04-23 16:50 | 58.66409 | 16.52156 | 33604 ft | 481 kts | 224° |
| 2026-04-23 16:50 | 58.63706 | 16.48267 | 33998 ft | 481 kts | 224° |
| 2026-04-23 16:50 | 58.61047 | 16.44449 | 34222 ft | 485 kts | 224° |
| 2026-04-23 16:50 | 58.58338 | 16.40570 | 34498 ft | 486 kts | 224° |
| 2026-04-23 16:51 | 58.55629 | 16.36695 | 34821 ft | 486 kts | 224° |
| 2026-04-23 16:51 | 58.52927 | 16.32840 | 35140 ft | 486 kts | 224° |
| 2026-04-23 16:51 | 58.50203 | 16.28959 | 35443 ft | 487 kts | 224° |
| 2026-04-23 16:51 | 58.47491 | 16.25104 | 35785 ft | 486 kts | 224° |
| 2026-04-23 16:52 | 58.44744 | 16.21206 | 36123 ft | 486 kts | 224° |
| 2026-04-23 16:52 | 58.42057 | 16.17402 | 36438 ft | 486 kts | 224° |
| 2026-04-23 16:52 | 58.39346 | 16.13572 | 36762 ft | 485 kts | 224° |
| 2026-04-23 16:52 | 58.36634 | 16.09746 | 37059 ft | 485 kts | 224° |
| 2026-04-23 16:53 | 58.33887 | 16.05881 | 37364 ft | 485 kts | 224° |
| 2026-04-23 16:53 | 58.31173 | 16.02068 | 37604 ft | 484 kts | 224° |
| 2026-04-23 16:53 | 58.28475 | 15.98286 | 37969 ft | 482 kts | 223° |
| 2026-04-23 16:53 | 58.25769 | 15.94499 | 38112 ft | 482 kts | 223° |
| 2026-04-23 16:54 | 58.20414 | 15.87026 | 38054 ft | 476 kts | 223° |
| 2026-04-23 16:54 | 58.15064 | 15.79588 | 38051 ft | 477 kts | 223° |
| 2026-04-23 16:55 | 58.09711 | 15.72176 | 38060 ft | 477 kts | 223° |
| 2026-04-23 16:55 | 58.04359 | 15.64793 | 38047 ft | 474 kts | 222° |
| 2026-04-23 16:56 | 57.99046 | 15.57482 | 38059 ft | 470 kts | 223° |
| 2026-04-23 16:56 | 57.93788 | 15.50179 | 38064 ft | 471 kts | 223° |
| 2026-04-23 16:57 | 57.88509 | 15.42882 | 38069 ft | 471 kts | 223° |
| 2026-04-23 16:57 | 57.83258 | 15.35649 | 38044 ft | 470 kts | 223° |
| 2026-04-23 16:58 | 57.78015 | 15.28456 | 38064 ft | 466 kts | 223° |
| 2026-04-23 16:58 | 57.72768 | 15.21283 | 38078 ft | 467 kts | 223° |
| 2026-04-23 16:59 | 57.67522 | 15.14139 | 38074 ft | 466 kts | 223° |
| 2026-04-23 16:59 | 57.62267 | 15.07009 | 38079 ft | 467 kts | 223° |
| 2026-04-23 17:00 | 57.57024 | 14.99920 | 38057 ft | 466 kts | 222° |
| 2026-04-23 17:00 | 57.51770 | 14.92841 | 38082 ft | 465 kts | 222° |
| 2026-04-23 17:01 | 57.46527 | 14.85805 | 38080 ft | 465 kts | 222° |
| 2026-04-23 17:01 | 57.41274 | 14.78779 | 38084 ft | 465 kts | 222° |
| 2026-04-23 17:02 | 57.36018 | 14.71775 | 38073 ft | 465 kts | 222° |
| 2026-04-23 17:02 | 57.30764 | 14.64798 | 38070 ft | 464 kts | 221° |
| 2026-04-23 17:03 | 57.25524 | 14.57866 | 38062 ft | 464 kts | 221° |
| 2026-04-23 17:03 | 57.20273 | 14.50944 | 38062 ft | 464 kts | 221° |
| 2026-04-23 17:04 | 57.15015 | 14.44037 | 38066 ft | 464 kts | 221° |
| 2026-04-23 17:04 | 57.09756 | 14.37153 | 38048 ft | 464 kts | 221° |
| 2026-04-23 17:05 | 57.04488 | 14.30283 | 38074 ft | 465 kts | 221° |
| 2026-04-23 17:05 | 56.99213 | 14.23428 | 38072 ft | 462 kts | 221° |
| 2026-04-23 17:06 | 56.93979 | 14.16648 | 38069 ft | 460 kts | 221° |
| 2026-04-23 17:06 | 56.88774 | 14.09930 | 38075 ft | 460 kts | 221° |
| 2026-04-23 17:07 | 56.83532 | 14.03189 | 38068 ft | 461 kts | 220° |
| 2026-04-23 17:07 | 56.78277 | 13.96455 | 38070 ft | 461 kts | 220° |
| 2026-04-23 17:08 | 56.73026 | 13.89747 | 38072 ft | 461 kts | 220° |
| 2026-04-23 17:08 | 56.67762 | 13.83049 | 38102 ft | 461 kts | 220° |
| 2026-04-23 17:09 | 56.62506 | 13.76383 | 38093 ft | 461 kts | 220° |
| 2026-04-23 17:09 | 56.58123 | 13.70842 | 38085 ft | 463 kts | 220° |
| 2026-04-23 17:10 | 56.52814 | 13.64151 | 38080 ft | 464 kts | 220° |
| 2026-04-23 17:10 | 56.47511 | 13.57490 | 38081 ft | 464 kts | 220° |
| 2026-04-23 17:11 | 56.42203 | 13.50847 | 38088 ft | 464 kts | 220° |
| 2026-04-23 17:11 | 56.36896 | 13.44227 | 38087 ft | 464 kts | 219° |
| 2026-04-23 17:12 | 56.31570 | 13.37609 | 38125 ft | 465 kts | 219° |
| 2026-04-23 17:12 | 56.26246 | 13.31014 | 38109 ft | 464 kts | 219° |
| 2026-04-23 17:13 | 56.20914 | 13.24432 | 38072 ft | 464 kts | 219° |
| 2026-04-23 17:13 | 56.15610 | 13.17908 | 38100 ft | 461 kts | 219° |
| 2026-04-23 17:14 | 56.10325 | 13.11428 | 38117 ft | 460 kts | 218° |
| 2026-04-23 17:14 | 56.05026 | 13.04954 | 38115 ft | 460 kts | 218° |
| 2026-04-23 17:15 | 55.99737 | 12.98513 | 38125 ft | 460 kts | 218° |
| 2026-04-23 17:15 | 55.94433 | 12.92078 | 38127 ft | 460 kts | 218° |
| 2026-04-23 17:16 | 55.89136 | 12.85670 | 38119 ft | 460 kts | 218° |
| 2026-04-23 17:16 | 55.83845 | 12.79291 | 38127 ft | 459 kts | 218° |
| 2026-04-23 17:17 | 55.78558 | 12.72939 | 38128 ft | 459 kts | 218° |
| 2026-04-23 17:17 | 55.73259 | 12.66593 | 38129 ft | 459 kts | 218° |
| 2026-04-23 17:18 | 55.65297 | 12.57099 | 38120 ft | 459 kts | 218° |
| 2026-04-23 17:19 | 55.60008 | 12.50819 | 38128 ft | 458 kts | 218° |
| 2026-04-23 17:19 | 55.54706 | 12.44544 | 38130 ft | 458 kts | 218° |
| 2026-04-23 17:20 | 55.49408 | 12.38293 | 38136 ft | 458 kts | 218° |
| 2026-04-23 17:21 | 55.38810 | 12.25852 | 38130 ft | 457 kts | 217° |
| 2026-04-23 17:21 | 55.30941 | 12.16667 | 38141 ft | 454 kts | 217° |
| 2026-04-23 17:22 | 55.23106 | 12.07565 | 36781 ft | 455 kts | 217° |
| 2026-04-23 17:23 | 55.17787 | 12.01412 | 35233 ft | 458 kts | 217° |
| 2026-04-23 17:23 | 55.15153 | 11.98372 | 34881 ft | 450 kts | 217° |
| 2026-04-23 17:23 | 55.09984 | 11.92420 | 34062 ft | 441 kts | 217° |
| 2026-04-23 17:24 | 55.07429 | 11.89485 | 33435 ft | 440 kts | 217° |
| 2026-04-23 17:24 | 55.04875 | 11.86556 | 32856 ft | 439 kts | 217° |
| 2026-04-23 17:24 | 54.99816 | 11.80768 | 31953 ft | 431 kts | 217° |
| 2026-04-23 17:25 | 54.94823 | 11.75071 | 30998 ft | 426 kts | 216° |
| 2026-04-23 17:25 | 54.92355 | 11.72263 | 30540 ft | 424 kts | 216° |
| 2026-04-23 17:26 | 54.87441 | 11.66679 | 29533 ft | 419 kts | 216° |
| 2026-04-23 17:26 | 54.82601 | 11.61195 | 28652 ft | 411 kts | 217° |
| 2026-04-23 17:27 | 54.77874 | 11.55853 | 27784 ft | 405 kts | 217° |
| 2026-04-23 17:27 | 54.75525 | 11.53204 | 27361 ft | 402 kts | 217° |
| 2026-04-23 17:27 | 54.73184 | 11.50568 | 26941 ft | 399 kts | 217° |
| 2026-04-23 17:27 | 54.70868 | 11.47964 | 26533 ft | 397 kts | 217° |
| 2026-04-23 17:28 | 54.68552 | 11.45363 | 26127 ft | 395 kts | 217° |
| 2026-04-23 17:28 | 54.66260 | 11.42792 | 25710 ft | 393 kts | 217° |
| 2026-04-23 17:28 | 54.63968 | 11.40225 | 25301 ft | 391 kts | 217° |
| 2026-04-23 17:28 | 54.61690 | 11.37677 | 24903 ft | 389 kts | 217° |
| 2026-04-23 17:29 | 54.59428 | 11.35151 | 24495 ft | 388 kts | 217° |
| 2026-04-23 17:29 | 54.57167 | 11.32629 | 24096 ft | 386 kts | 217° |
| 2026-04-23 17:29 | 54.52782 | 11.27359 | 23216 ft | 382 kts | 219° |
| 2026-04-23 17:30 | 54.50638 | 11.24751 | 23163 ft | 369 kts | 219° |
| 2026-04-23 17:30 | 54.46560 | 11.19806 | 23177 ft | 354 kts | 219° |
| 2026-04-23 17:30 | 54.44542 | 11.17366 | 23185 ft | 354 kts | 219° |
| 2026-04-23 17:31 | 54.42537 | 11.14945 | 22948 ft | 353 kts | 219° |
| 2026-04-23 17:31 | 54.40496 | 11.12482 | 22168 ft | 364 kts | 219° |
| 2026-04-23 17:31 | 54.38395 | 11.09950 | 21422 ft | 372 kts | 218° |
| 2026-04-23 17:31 | 54.36254 | 11.07375 | 20681 ft | 381 kts | 218° |
| 2026-04-23 17:32 | 54.34062 | 11.04741 | 19950 ft | 388 kts | 218° |
| 2026-04-23 17:32 | 54.31816 | 11.02043 | 19412 ft | 389 kts | 218° |
| 2026-04-23 17:32 | 54.29706 | 10.99267 | 18691 ft | 385 kts | 221° |
| 2026-04-23 17:32 | 54.27617 | 10.96475 | 17944 ft | 379 kts | 220° |
| 2026-04-23 17:33 | 54.25546 | 10.93732 | 17185 ft | 374 kts | 220° |
| 2026-04-23 17:33 | 54.23494 | 10.91027 | 16454 ft | 369 kts | 220° |
| 2026-04-23 17:33 | 54.21472 | 10.88368 | 15759 ft | 365 kts | 220° |
| 2026-04-23 17:33 | 54.19470 | 10.85740 | 15082 ft | 360 kts | 220° |
| 2026-04-23 17:34 | 54.17493 | 10.83147 | 14414 ft | 357 kts | 221° |
| 2026-04-23 17:34 | 54.15536 | 10.80584 | 13758 ft | 353 kts | 221° |
| 2026-04-23 17:34 | 54.11684 | 10.75551 | 12361 ft | 345 kts | 221° |
| 2026-04-23 17:35 | 54.09792 | 10.73082 | 11691 ft | 341 kts | 221° |
| 2026-04-23 17:35 | 54.06141 | 10.68331 | 11212 ft | 307 kts | 221° |
| 2026-04-23 17:35 | 54.04494 | 10.66188 | 10819 ft | 299 kts | 222° |
| 2026-04-23 17:36 | 54.02844 | 10.64044 | 10264 ft | 299 kts | 222° |
| 2026-04-23 17:36 | 54.01196 | 10.61906 | 9666 ft | 298 kts | 222° |
| 2026-04-23 17:36 | 53.99548 | 10.59770 | 9068 ft | 297 kts | 222° |
| 2026-04-23 17:36 | 53.97900 | 10.57636 | 8474 ft | 296 kts | 221° |
| 2026-04-23 17:37 | 53.96265 | 10.55519 | 7893 ft | 296 kts | 222° |
| 2026-04-23 17:37 | 53.94610 | 10.53382 | 7307 ft | 295 kts | 222° |
| 2026-04-23 17:37 | 53.91327 | 10.49351 | 6292 ft | 290 kts | 218° |
| 2026-04-23 17:38 | 53.89671 | 10.47503 | 5958 ft | 280 kts | 219° |
| 2026-04-23 17:38 | 53.88150 | 10.45450 | 5662 ft | 273 kts | 225° |
| 2026-04-23 17:38 | 53.86692 | 10.43406 | 5384 ft | 272 kts | 224° |
| 2026-04-23 17:38 | 53.85219 | 10.41417 | 5158 ft | 270 kts | 223° |
| 2026-04-23 17:39 | 53.83738 | 10.39460 | 5025 ft | 271 kts | 223° |
| 2026-04-23 17:39 | 53.82261 | 10.37531 | 4920 ft | 271 kts | 223° |
| 2026-04-23 17:39 | 53.80937 | 10.35318 | 4756 ft | 264 kts | 237° |
| 2026-04-23 17:39 | 53.79767 | 10.32892 | 4593 ft | 263 kts | 236° |
| 2026-04-23 17:40 | 53.78622 | 10.30535 | 4464 ft | 260 kts | 237° |
| 2026-04-23 17:40 | 53.77493 | 10.28182 | 4265 ft | 250 kts | 236° |
| 2026-04-23 17:40 | 53.76413 | 10.25958 | 3963 ft | 246 kts | 236° |
| 2026-04-23 17:40 | 53.75330 | 10.23744 | 3654 ft | 243 kts | 236° |
| 2026-04-23 17:41 | 53.74247 | 10.21535 | 3339 ft | 241 kts | 236° |
| 2026-04-23 17:41 | 53.72133 | 10.17241 | 2720 ft | 237 kts | 236° |
| 2026-04-23 17:41 | 53.71091 | 10.15126 | 2408 ft | 232 kts | 236° |
| 2026-04-23 17:42 | 53.69177 | 10.11259 | 1857 ft | 191 kts | 237° |
| 2026-04-23 17:42 | 53.68383 | 10.09646 | 1610 ft | 173 kts | 238° |
| 2026-04-23 17:42 | 53.67632 | 10.08124 | 1371 ft | 159 kts | 238° |
| 2026-04-23 17:43 | 53.66977 | 10.06806 | 1215 ft | 140 kts | 238° |
| 2026-04-23 17:43 | 53.66357 | 10.05542 | 1024 ft | 137 kts | 238° |
| 2026-04-23 17:43 | 53.65763 | 10.04340 | 759 ft | 134 kts | 235° |
| 2026-04-23 17:43 | 53.65152 | 10.03127 | 552 ft | 134 kts | 235° |
| 2026-04-23 17:44 | 53.64584 | 10.01945 | 419 ft | 130 kts | 236° |
| 2026-04-23 17:44 | 53.64006 | 10.00784 | 225 ft | 126 kts | 234° |
| 2026-04-23 17:44 | 53.62986 | 9.98719 | 54 ft | 85 kts | 230° |
| 2026-04-23 17:45 | 53.62702 | 9.98150 | 56 ft | 59 kts | 230° |
| 2026-04-23 17:45 | 53.62426 | 9.97899 | 53 ft | 17 kts | 91° |
| 2026-04-23 17:45 | 53.62440 | 9.98021 | 49 ft | 10 kts | 71° |
| 2026-04-23 17:46 | 53.62532 | 9.98240 | 48 ft | 14 kts | 52° |
| 2026-04-23 17:46 | 53.62602 | 9.98379 | 51 ft | 16 kts | 50° |
| 2026-04-23 17:46 | 53.62682 | 9.98541 | 50 ft | 19 kts | 50° |
| 2026-04-23 17:47 | 53.62775 | 9.98729 | 53 ft | 22 kts | 51° |
| 2026-04-23 17:47 | 53.62872 | 9.98924 | 50 ft | 23 kts | 50° |
| 2026-04-23 17:47 | 53.63048 | 9.99285 | 49 ft | 17 kts | 53° |
| 2026-04-23 17:48 | 53.63082 | 9.99365 | 50 ft | 0 kts | 56° |
| 2026-04-23 17:48 | 53.63087 | 9.99377 | 51 ft | 5 kts | 54° |
| 2026-04-23 17:48 | 53.63132 | 9.99486 | 52 ft | 18 kts | 53° |
| 2026-04-23 17:48 | 53.63196 | 9.99619 | 53 ft | 10 kts | 47° |
| 2026-04-23 17:49 | 53.63227 | 9.99724 | 51 ft | 9 kts | 97° |
| 2026-04-23 17:49 | 53.63209 | 9.99774 | 51 ft | 7 kts | 148° |
| 2026-04-23 17:49 | 53.63160 | 9.99815 | 49 ft | 9 kts | 154° |
| 2026-04-23 17:49 | 53.63139 | 9.99870 | 53 ft | 4 kts | 83° |
| 2026-04-23 17:50 | 53.63137 | 9.99946 | 53 ft | 8 kts | 116° |
| 2026-04-23 17:50 | 53.63101 | 9.99996 | 51 ft | 0 kts | 145° |